createdAt,value
2022-10-05T00:01:55.015Z,100840.78
2022-10-05T00:04:28.338Z,100850.28
2022-10-05T00:07:08.471Z,100851.13
2022-10-05T00:09:35.223Z,100841.16
2022-10-05T00:12:18.187Z,100840.78
2022-10-05T00:14:47.085Z,100839.28
2022-10-05T00:17:21.527Z,100834.19
2022-10-05T00:19:52.409Z,100853.09
2022-10-05T00:22:24.818Z,100839.03
2022-10-05T00:24:57.750Z,100833.13
2022-10-05T00:27:39.276Z,100825.06
2022-10-05T00:30:18.910Z,100827.22
2022-10-05T00:32:46.071Z,100828.91
2022-10-05T00:35:13.705Z,100831.88
2022-10-05T00:37:41.062Z,100828.59
2022-10-05T00:40:32.498Z,100825.47
2022-10-05T00:43:10.942Z,100820.56
2022-10-05T00:45:48.859Z,100824.34
2022-10-05T00:48:32.877Z,100823.03
2022-10-05T00:51:20.684Z,100818.81
2022-10-05T00:53:59.378Z,100816.19
2022-10-05T00:56:51.899Z,100816.75
2022-10-05T00:59:24.296Z,100816.28
2022-10-05T01:02:15.361Z,100824.34
2022-10-05T01:04:59.314Z,100821.53
2022-10-05T01:07:49.859Z,100816.13
2022-10-05T01:10:34.691Z,100817.25
2022-10-05T01:13:15.871Z,100808.41
2022-10-05T01:15:44.996Z,100807.53
2022-10-05T01:18:19.392Z,100817.91
2022-10-05T01:20:55.018Z,100828.00
2022-10-05T01:23:24.332Z,100818.38
2022-10-05T01:25:59.596Z,100822.84
2022-10-05T01:28:35.196Z,100824.75
2022-10-05T01:31:17.923Z,100828.25
2022-10-05T01:33:56.364Z,100838.03
2022-10-05T01:36:36.731Z,100822.94
2022-10-05T01:39:15.184Z,100824.50
2022-10-05T01:42:04.313Z,100826.94
2022-10-05T01:44:38.799Z,100819.72
2022-10-05T01:47:10.136Z,100820.22
2022-10-05T01:49:38.760Z,100820.22
2022-10-05T01:52:35.776Z,100817.75
2022-10-05T01:55:17.772Z,100815.44
2022-10-05T01:58:02.740Z,100810.19
2022-10-05T02:00:33.145Z,100801.84
2022-10-05T02:03:17.368Z,100801.97
2022-10-05T02:05:51.782Z,100791.53
2022-10-05T02:08:26.736Z,100794.84
2022-10-05T02:11:01.339Z,100785.88
2022-10-05T02:13:30.632Z,100785.06
2022-10-05T02:16:03.302Z,100785.06
2022-10-05T02:19:12.017Z,100776.00
2022-10-05T02:21:39.036Z,100774.38
2022-10-05T02:24:11.825Z,100773.59
2022-10-05T02:26:40.509Z,100778.31
2022-10-05T02:29:11.442Z,100771.22
2022-10-05T02:32:04.120Z,100759.44
2022-10-05T02:34:42.901Z,100763.41
2022-10-05T02:37:24.991Z,100751.53
2022-10-05T02:39:57.269Z,100745.44
2022-10-05T02:42:33.226Z,100751.84
2022-10-05T02:45:14.012Z,100732.53
2022-10-05T02:48:13.541Z,100728.53
2022-10-05T02:50:52.737Z,100726.22
2022-10-05T02:53:44.547Z,100722.38
2022-10-05T02:56:19.037Z,100720.63
2022-10-05T02:59:00.693Z,100731.03
2022-10-05T03:02:19.981Z,100719.81
2022-10-05T03:04:55.306Z,100728.75
2022-10-05T03:07:32.283Z,100736.03
2022-10-05T03:10:13.181Z,100735.53
2022-10-05T03:13:00.593Z,100732.25
2022-10-05T03:15:53.801Z,100730.41
2022-10-05T03:18:38.737Z,100723.84
2022-10-05T03:21:27.358Z,100715.34
2022-10-05T03:23:59.694Z,100719.50
2022-10-05T03:26:58.002Z,100714.84
2022-10-05T03:29:24.345Z,100702.75
2022-10-05T03:32:11.046Z,100712.22
2022-10-05T03:34:53.358Z,100705.59
2022-10-05T03:37:30.351Z,100698.09
2022-10-05T03:40:17.174Z,100710.94
2022-10-05T03:43:06.801Z,100705.97
2022-10-05T03:46:04.404Z,100706.94
2022-10-05T03:48:48.481Z,100709.41
2022-10-05T03:51:36.281Z,100697.81
2022-10-05T03:54:19.881Z,100698.97
2022-10-05T03:57:06.545Z,100702.69
2022-10-05T03:59:39.401Z,100701.56
2022-10-05T04:02:13.239Z,100698.53
2022-10-05T04:04:50.598Z,100692.66
2022-10-05T04:07:51.122Z,100687.09
2022-10-05T04:10:24.050Z,100693.56
2022-10-05T04:13:06.966Z,100692.75
2022-10-05T04:15:45.089Z,100688.16
2022-10-05T04:18:23.530Z,100688.16
2022-10-05T04:20:56.190Z,100677.00
2022-10-05T04:23:44.774Z,100676.88
2022-10-05T04:26:18.618Z,100669.34
2022-10-05T04:29:04.986Z,100674.38
2022-10-05T04:31:55.239Z,100676.13
2022-10-05T04:34:54.379Z,100669.16
2022-10-05T04:37:35.779Z,100662.69
2022-10-05T04:40:34.594Z,100648.81
2022-10-05T04:43:19.217Z,100658.25
2022-10-05T04:46:14.168Z,100658.25
2022-10-05T04:48:52.797Z,100653.41
2022-10-05T04:51:37.790Z,100654.97
2022-10-05T04:54:18.669Z,100649.03
2022-10-05T04:56:53.094Z,100648.66
2022-10-05T04:59:22.620Z,100658.78
2022-10-05T05:02:16.551Z,100658.31
2022-10-05T05:04:57.912Z,100650.00
2022-10-05T05:07:30.451Z,100645.34
2022-10-05T05:09:59.587Z,100652.28
2022-10-05T05:12:50.153Z,100644.59
2022-10-05T05:15:29.093Z,100656.19
2022-10-05T05:18:01.213Z,100648.94
2022-10-05T05:20:28.029Z,100650.47
2022-10-05T05:23:26.649Z,100650.94
2022-10-05T05:26:06.617Z,100656.28
2022-10-05T05:28:53.174Z,100650.56
2022-10-05T05:31:45.143Z,100657.94
2022-10-05T05:34:36.530Z,100659.66
2022-10-05T05:37:32.690Z,100653.69
2022-10-05T05:40:25.209Z,100657.81
2022-10-05T05:42:58.819Z,100663.63
2022-10-05T05:45:31.078Z,100667.94
2022-10-05T05:47:59.482Z,100665.72
2022-10-05T05:51:08.709Z,100663.78
2022-10-05T05:53:45.589Z,100660.19
2022-10-05T05:56:18.969Z,100660.66
2022-10-05T05:58:51.989Z,100672.78
2022-10-05T06:01:44.639Z,100678.41
2022-10-05T06:04:38.264Z,100680.75
2022-10-05T06:07:05.937Z,100685.69
2022-10-05T06:09:45.322Z,100673.94
2022-10-05T06:12:20.146Z,100672.88
2022-10-05T06:14:50.369Z,100659.81
2022-10-05T06:17:24.645Z,100680.41
2022-10-05T06:19:59.023Z,100669.69
2022-10-05T06:22:37.147Z,100683.81
2022-10-05T06:25:09.659Z,100668.41
2022-10-05T06:27:37.881Z,100692.38
2022-10-05T06:30:11.103Z,100687.06
2022-10-05T06:32:58.586Z,100684.88
2022-10-05T06:36:00.636Z,100699.63
2022-10-05T06:38:47.986Z,100677.78
2022-10-05T06:41:27.653Z,100681.38
2022-10-05T06:44:03.943Z,100680.22
2022-10-05T06:46:40.302Z,100704.69
2022-10-05T06:49:18.336Z,100694.91
2022-10-05T06:52:03.051Z,100696.41
2022-10-05T06:54:50.200Z,100687.09
2022-10-05T06:57:50.586Z,100684.84
2022-10-05T07:00:21.284Z,100694.06
2022-10-05T07:03:25.428Z,100691.66
2022-10-05T07:06:06.894Z,100697.31
2022-10-05T07:08:54.327Z,100690.13
2022-10-05T07:11:59.659Z,100693.66
2022-10-05T07:14:45.565Z,100689.25
2022-10-05T07:17:50.379Z,100692.44
2022-10-05T07:20:30.291Z,100691.22
2022-10-05T07:23:14.821Z,100687.28
2022-10-05T07:25:50.333Z,100684.34
2022-10-05T07:28:25.851Z,100672.53
2022-10-05T07:31:02.040Z,100681.56
2022-10-05T07:33:56.602Z,100675.50
2022-10-05T07:36:52.229Z,100675.72
2022-10-05T07:39:55.344Z,100672.22
2022-10-05T07:42:52.053Z,100675.47
2022-10-05T07:45:29.695Z,100677.47
2022-10-05T07:47:59.152Z,100680.25
2022-10-05T07:50:38.627Z,100685.31
2022-10-05T07:53:11.362Z,100683.19
2022-10-05T07:55:43.791Z,100680.06
2022-10-05T07:58:24.572Z,100693.19
2022-10-05T08:01:00.534Z,100686.75
2022-10-05T08:03:34.426Z,100699.25
2022-10-05T08:06:03.926Z,100684.31
2022-10-05T08:08:50.583Z,100684.56
2022-10-05T08:11:23.870Z,100680.84
2022-10-05T08:14:33.728Z,100676.69
2022-10-05T08:17:04.230Z,100673.28
2022-10-05T08:19:47.459Z,100675.56
2022-10-05T08:22:23.139Z,100663.31
2022-10-05T08:24:57.870Z,100675.03
2022-10-05T08:28:10.507Z,100677.63
2022-10-05T08:31:02.282Z,100669.75
2022-10-05T08:33:35.945Z,100677.06
2022-10-05T08:36:10.728Z,100680.66
2022-10-05T08:38:37.778Z,100680.09
2022-10-05T08:41:19.870Z,100668.88
2022-10-05T08:43:52.227Z,100666.72
2022-10-05T08:46:36.059Z,100666.25
2022-10-05T08:49:14.636Z,100673.53
2022-10-05T08:51:58.787Z,100695.66
2022-10-05T08:54:43.384Z,100685.91
2022-10-05T08:57:46.611Z,100687.47
2022-10-05T09:00:18.879Z,100681.50
2022-10-05T09:03:16.467Z,100688.69
2022-10-05T09:06:21.767Z,100695.28
2022-10-05T09:08:56.580Z,100691.47
2022-10-05T09:11:36.192Z,100699.94
2022-10-05T09:14:29.569Z,100695.94
2022-10-05T09:17:20.196Z,100689.66
2022-10-05T09:19:52.495Z,100687.19
2022-10-05T09:22:43.811Z,100691.13
2022-10-05T09:25:56.620Z,100691.72
2022-10-05T09:28:31.174Z,100713.56
2022-10-05T09:31:07.567Z,100705.16
2022-10-05T09:33:53.894Z,100704.97
2022-10-05T09:36:34.498Z,100702.81
2022-10-05T09:39:22.925Z,100702.47
2022-10-05T09:42:11.885Z,100704.19
2022-10-05T09:44:56.236Z,100706.09
2022-10-05T09:47:45.236Z,100703.09
2022-10-05T09:50:49.325Z,100706.69
2022-10-05T09:53:32.256Z,100705.78
2022-10-05T09:56:34.667Z,100704.22
2022-10-05T09:59:18.194Z,100708.53
2022-10-05T10:01:59.235Z,100695.28
2022-10-05T10:05:06.926Z,100707.84
2022-10-05T10:07:52.829Z,100706.16
2022-10-05T10:10:45.557Z,100710.28
2022-10-05T10:13:45.714Z,100708.13
2022-10-05T10:16:42.573Z,100708.41
2022-10-05T10:19:35.393Z,100705.13
2022-10-05T10:22:20.667Z,100703.19
2022-10-05T10:25:24.914Z,100689.72
2022-10-05T10:28:13.631Z,100692.34
2022-10-05T10:31:05.014Z,100697.91
2022-10-05T10:34:09.102Z,100693.00
2022-10-05T10:36:57.162Z,100695.72
2022-10-05T10:39:53.742Z,100688.69
2022-10-05T10:42:41.850Z,100687.03
2022-10-05T10:45:19.800Z,100694.69
2022-10-05T10:47:52.056Z,100683.50
2022-10-05T10:50:37.031Z,100682.94
2022-10-05T10:53:52.992Z,100695.28
2022-10-05T10:56:33.482Z,100686.03
2022-10-05T10:59:08.102Z,100691.47
2022-10-05T11:02:14.294Z,100680.63
2022-10-05T11:04:56.218Z,100687.09
2022-10-05T11:08:01.071Z,100683.66
2022-10-05T11:10:55.389Z,100689.03
2022-10-05T11:13:55.720Z,100687.22
2022-10-05T11:16:27.983Z,100678.16
2022-10-05T11:19:06.315Z,100675.72
2022-10-05T11:22:00.210Z,100677.94
2022-10-05T11:24:45.511Z,100671.69
2022-10-05T11:27:56.099Z,100668.69
2022-10-05T11:30:38.136Z,100663.22
2022-10-05T11:33:22.974Z,100661.03
2022-10-05T11:36:08.967Z,100658.25
2022-10-05T11:39:11.459Z,100659.97
2022-10-05T11:41:52.959Z,100652.34
2022-10-05T11:44:41.316Z,100652.28
2022-10-05T11:47:16.873Z,100644.16
2022-10-05T11:49:53.903Z,100640.59
2022-10-05T11:52:27.664Z,100635.03
2022-10-05T11:55:10.749Z,100631.38
2022-10-05T11:57:49.557Z,100626.81
2022-10-05T12:00:25.299Z,100621.38
2022-10-05T12:03:03.557Z,100611.03
2022-10-05T12:05:54.605Z,100612.44
2022-10-05T12:08:50.381Z,100615.19
2022-10-05T12:11:40.641Z,100604.63
2022-10-05T12:14:20.815Z,100609.00
2022-10-05T12:17:16.750Z,100587.25
2022-10-05T12:19:51.469Z,100590.00
2022-10-05T12:22:36.818Z,100590.00
2022-10-05T12:25:42.369Z,100575.03
2022-10-05T12:28:27.138Z,100572.56
2022-10-05T12:31:20.642Z,100571.44
2022-10-05T12:33:57.606Z,100577.16
2022-10-05T12:36:46.192Z,100564.78
2022-10-05T12:39:29.954Z,100568.59
2022-10-05T12:42:22.647Z,100563.41
2022-10-05T12:44:57.335Z,100567.50
2022-10-05T12:47:53.736Z,100552.19
2022-10-05T12:50:23.513Z,100556.50
2022-10-05T12:53:23.918Z,100545.53
2022-10-05T12:56:05.506Z,100555.34
2022-10-05T12:58:47.087Z,100543.59
2022-10-05T13:01:34.945Z,100526.88
2022-10-05T13:04:09.083Z,100516.78
2022-10-05T13:07:08.127Z,100506.31
2022-10-05T13:10:19.217Z,100502.59
2022-10-05T13:13:24.979Z,100500.88
2022-10-05T13:15:54.435Z,100484.75
2022-10-05T13:18:36.167Z,100488.16
2022-10-05T13:21:21.071Z,100489.75
2022-10-05T13:24:06.529Z,100490.13
2022-10-05T13:26:36.448Z,100483.25
2022-10-05T13:29:25.912Z,100477.97
2022-10-05T13:31:58.107Z,100485.59
2022-10-05T13:34:43.321Z,100473.25
2022-10-05T13:37:27.511Z,100474.34
2022-10-05T13:40:15.476Z,100474.00
2022-10-05T13:43:04.118Z,100474.97
2022-10-05T13:46:04.778Z,100460.78
2022-10-05T13:49:19.397Z,100473.75
2022-10-05T13:52:13.851Z,100468.34
2022-10-05T13:54:47.829Z,100468.13
2022-10-05T13:57:45.303Z,100464.47
2022-10-05T14:00:25.644Z,100471.53
2022-10-05T14:02:56.830Z,100478.94
2022-10-05T14:05:27.058Z,100487.94
2022-10-05T14:08:02.659Z,100461.13
2022-10-05T14:10:40.845Z,100462.91
2022-10-05T14:13:32.084Z,100451.88
2022-10-05T14:16:21.632Z,100456.69
2022-10-05T14:19:14.357Z,100431.31
2022-10-05T14:21:50.189Z,100426.28
2022-10-05T14:24:49.446Z,100447.53
2022-10-05T14:27:28.273Z,100437.09
2022-10-05T14:30:13.013Z,100421.16
2022-10-05T14:32:59.174Z,100416.19
2022-10-05T14:35:29.749Z,100403.69
2022-10-05T14:38:02.844Z,100413.44
2022-10-05T14:40:35.408Z,100399.47
2022-10-05T14:43:18.431Z,100400.72
2022-10-05T14:45:55.181Z,100390.38
2022-10-05T14:48:21.713Z,100389.94
2022-10-05T14:50:59.606Z,100397.97
2022-10-05T14:53:38.847Z,100399.06
2022-10-05T14:56:53.702Z,100381.47
2022-10-05T14:59:46.811Z,100374.50
2022-10-05T15:02:45.068Z,100375.66
2022-10-05T15:05:34.575Z,100367.94
2022-10-05T15:08:27.370Z,100372.31
2022-10-05T15:11:18.678Z,100365.81
2022-10-05T15:13:48.689Z,100358.69
2022-10-05T15:16:28.912Z,100356.28
2022-10-05T15:19:08.295Z,100357.34
2022-10-05T15:21:43.838Z,100349.94
2022-10-05T15:24:20.894Z,100354.50
2022-10-05T15:26:54.383Z,100347.41
2022-10-05T15:29:41.953Z,100349.41
2022-10-05T15:32:42.073Z,100351.09
2022-10-05T15:35:37.110Z,100345.47
2022-10-05T15:38:17.790Z,100355.19
2022-10-05T15:41:11.963Z,100343.53
2022-10-05T15:44:19.046Z,100361.19
2022-10-05T15:46:58.181Z,100335.06
2022-10-05T15:49:30.438Z,100343.22
2022-10-05T15:52:19.151Z,100337.38
2022-10-05T15:55:01.539Z,100333.66
2022-10-05T15:58:25.775Z,100346.63
2022-10-05T16:00:58.781Z,100346.31
2022-10-05T16:03:34.305Z,100315.50
2022-10-05T16:06:27.563Z,100341.59
2022-10-05T16:09:09.358Z,100320.19
2022-10-05T16:12:09.862Z,100316.47
2022-10-05T16:14:47.614Z,100307.16
2022-10-05T16:17:40.970Z,100312.03
2022-10-05T16:20:31.432Z,100339.56
2022-10-05T16:23:40.253Z,100315.47
2022-10-05T16:26:24.504Z,100332.03
2022-10-05T16:29:02.341Z,100328.44
2022-10-05T16:31:43.981Z,100319.66
2022-10-05T16:34:27.119Z,100323.78
2022-10-05T16:37:14.871Z,100313.47
2022-10-05T16:39:49.561Z,100319.50
2022-10-05T16:42:36.263Z,100319.56
2022-10-05T16:45:18.688Z,100317.28
2022-10-05T16:48:12.200Z,100316.22
2022-10-05T16:50:55.135Z,100322.66
2022-10-05T16:53:45.693Z,100325.97
2022-10-05T16:56:17.272Z,100334.56
2022-10-05T16:59:11.655Z,100336.19
2022-10-05T17:02:06.092Z,100334.88
2022-10-05T17:04:48.862Z,100347.28
2022-10-05T17:07:42.170Z,100346.09
2022-10-05T17:10:37.298Z,100343.94
2022-10-05T17:13:42.091Z,100355.47
2022-10-05T17:16:14.702Z,100352.81
2022-10-05T17:19:10.324Z,100368.66
2022-10-05T17:21:48.379Z,100362.19
2022-10-05T17:24:30.113Z,100381.06
2022-10-05T17:26:59.365Z,100371.56
2022-10-05T17:29:32.075Z,100375.13
2022-10-05T17:32:36.199Z,100378.06
2022-10-05T17:35:18.245Z,100381.66
2022-10-05T17:38:14.562Z,100388.44
2022-10-05T17:41:03.402Z,100390.97
2022-10-05T17:43:31.964Z,100393.69
2022-10-05T17:46:07.278Z,100400.00
2022-10-05T17:48:49.291Z,100403.25
2022-10-05T17:51:57.716Z,100412.56
2022-10-05T17:54:48.168Z,100412.59
2022-10-05T17:57:23.951Z,100415.31
2022-10-05T18:00:06.739Z,100420.97
2022-10-05T18:02:36.917Z,100424.66
2022-10-05T18:05:06.790Z,100428.22
2022-10-05T18:07:38.856Z,100425.47
2022-10-05T18:10:17.683Z,100428.19
2022-10-05T18:12:47.917Z,100427.66
2022-10-05T18:15:45.005Z,100441.22
2022-10-05T18:18:32.958Z,100444.78
2022-10-05T18:21:11.834Z,100439.91
2022-10-05T18:23:41.619Z,100443.72
2022-10-05T18:26:29.076Z,100438.81
2022-10-05T18:29:40.869Z,100450.81
2022-10-05T18:32:23.553Z,100431.44
2022-10-05T18:35:08.619Z,100447.78
2022-10-05T18:37:56.738Z,100456.28
2022-10-05T18:40:54.611Z,100457.91
2022-10-05T18:43:29.200Z,100448.38
2022-10-05T18:46:05.191Z,100449.22
2022-10-05T18:48:49.836Z,100449.16
2022-10-05T18:51:35.300Z,100479.72
2022-10-05T18:54:11.424Z,100450.34
2022-10-05T18:56:48.809Z,100496.94
2022-10-05T18:59:39.512Z,100466.63
2022-10-05T19:02:43.526Z,100472.38
2022-10-05T19:05:46.320Z,100489.00
2022-10-05T19:08:27.093Z,100475.03
2022-10-05T19:10:57.560Z,100494.47
2022-10-05T19:14:01.690Z,100495.03
2022-10-05T19:16:52.833Z,100481.41
2022-10-05T19:19:39.261Z,100507.03
2022-10-05T19:22:21.961Z,100507.34
2022-10-05T19:25:01.898Z,100501.59
2022-10-05T19:27:44.709Z,100508.41
2022-10-05T19:30:23.198Z,100520.16
2022-10-05T19:32:58.452Z,100520.47
2022-10-05T19:35:33.522Z,100528.94
2022-10-05T19:38:15.992Z,100535.75
2022-10-05T19:40:57.101Z,100529.16
2022-10-05T19:43:29.976Z,100537.63
2022-10-05T19:46:34.665Z,100547.97
2022-10-05T19:49:01.749Z,100550.75
2022-10-05T19:51:31.528Z,100555.06
2022-10-05T19:54:02.127Z,100555.06
2022-10-05T19:56:33.564Z,100561.38
2022-10-05T19:59:18.717Z,100564.34
2022-10-05T20:01:51.378Z,100566.81
2022-10-05T20:04:41.454Z,100562.72
2022-10-05T20:07:21.746Z,100557.56
2022-10-05T20:09:59.945Z,100576.88
2022-10-05T20:12:52.477Z,100576.88
2022-10-05T20:15:39.968Z,100574.72
2022-10-05T20:18:44.066Z,100586.69
2022-10-05T20:21:37.367Z,100590.00
2022-10-05T20:24:31.977Z,100586.97
2022-10-05T20:27:07.185Z,100597.63
2022-10-05T20:29:36.782Z,100606.34
2022-10-05T20:32:15.253Z,100605.78
2022-10-05T21:49:37.600Z,100646.41
2022-10-05T21:52:07.738Z,100654.88
2022-10-05T21:54:35.122Z,100648.84
2022-10-05T21:57:02.209Z,100660.31
2022-10-05T21:59:32.978Z,100651.03
2022-10-05T22:01:59.581Z,100659.22
2022-10-05T22:04:26.448Z,100652.66
2022-10-05T22:06:54.897Z,100653.50
2022-10-05T22:09:21.350Z,100652.13
2022-10-05T22:11:48.140Z,100648.78
2022-10-05T22:14:15.603Z,100652.94
2022-10-05T22:16:44.088Z,100653.22
2022-10-05T22:19:15.573Z,100653.72
2022-10-05T22:21:42.069Z,100664.94
2022-10-05T22:24:09.237Z,100664.06
2022-10-05T22:26:36.463Z,100663.56
2022-10-05T22:29:03.673Z,100664.09
2022-10-05T22:31:30.309Z,100666.56
2022-10-05T22:33:56.864Z,100656.47
2022-10-05T22:36:23.483Z,100674.13
2022-10-05T22:38:49.967Z,100661.09
2022-10-05T22:41:19.492Z,100682.31
2022-10-05T22:43:50.312Z,100681.03
2022-10-05T22:46:17.324Z,100677.47
2022-10-05T22:48:43.943Z,100685.38
2022-10-05T22:51:10.504Z,100687.28
2022-10-05T22:53:37.092Z,100682.66
2022-10-05T22:56:12.141Z,100680.75
2022-10-05T22:58:39.783Z,100681.56
2022-10-05T23:01:10.020Z,100678.81
2022-10-05T23:03:36.856Z,100669.28
2022-10-05T23:06:09.819Z,100679.91
2022-10-05T23:08:37.831Z,100675.00
2022-10-05T23:11:09.591Z,100686.44
2022-10-05T23:13:36.504Z,100685.34
2022-10-05T23:16:11.534Z,100688.06
2022-10-05T23:18:38.383Z,100697.91
2022-10-05T23:21:07.468Z,100697.91
2022-10-05T23:23:38.047Z,100695.69
2022-10-05T23:26:06.100Z,100692.44
2022-10-05T23:28:33.458Z,100695.75
2022-10-05T23:31:02.595Z,100700.91
2022-10-05T23:33:29.358Z,100701.44
2022-10-05T23:36:23.571Z,100712.63
2022-10-05T23:38:50.822Z,100727.38
2022-10-05T23:41:18.088Z,100706.63
2022-10-05T23:43:44.595Z,100705.25
2022-10-05T23:46:12.120Z,100695.47
2022-10-05T23:48:39.409Z,100711.53
2022-10-05T23:51:07.928Z,100706.91
2022-10-05T23:53:34.581Z,100721.34
2022-10-05T23:56:01.224Z,100726.84
2022-10-05T23:58:28.464Z,100723.00
